aviador You're here:

LTBF Decoded Metar

BALIKESIR in TURKEY
Report Time2018-06-18 18:50:00
UTC Time2018-06-18 19:14:33
Flight Rules vfr VFR
Wind350° at 05 kt
W.Decomp.*RWY 36: 4.9 kt HW 1.2 kt LCW
W.Rank350° ranks 4
Current wind is below 350° avg. (7.2)
Visibility9999 m
Phenomena:N/A
Clouds:Few 035 Hf
Scattered 100 Hf
Expected CloudBase > 2,000 ft AGL from Temp-Dew spread
CeilingNone
Temp23°C (ISA +9)
Dew Point18°C (74% RH)
QNH1010 hPa
Density Alt1,719 ft
Elevation335 ft
Report Wrong Elevation
Raw Report
METAR LTBF 181850Z 35005KT 9999 FEW035 SCT100 23/18 Q1010 NOSIG RMK
RWY18 33007KT 290V350=

Extra information for LTBF:More info

Metar Taf Metar & Taf Last 4 Metars F.Rules Stats Wind Profile Meteogram Temp Stats Airport Information Weather charts Add Link Nearby VenuesMetar ALERT Operation Metar Decoded Social comments